sensor_id;sensor_type;location;lat;lon;timestamp;pressure;altitude;pressure_sealevel;temperature;humidity
57990;BME280;58373;51.824;5.564;2023-05-15T00:02:16;101447.22;;;11.90;89.84
57990;BME280;58373;51.824;5.564;2023-05-15T00:04:41;101443.09;;;11.87;89.86
57990;BME280;58373;51.824;5.564;2023-05-15T00:07:06;101449.13;;;11.88;89.94
57990;BME280;58373;51.824;5.564;2023-05-15T00:09:32;101442.25;;;11.87;90.67
57990;BME280;58373;51.824;5.564;2023-05-15T00:11:57;101434.56;;;11.85;90.02
57990;BME280;58373;51.824;5.564;2023-05-15T00:14:22;101429.16;;;11.88;90.17
57990;BME280;58373;51.824;5.564;2023-05-15T00:16:48;101428.34;;;11.88;90.37
57990;BME280;58373;51.824;5.564;2023-05-15T00:19:13;101425.00;;;11.86;91.77
57990;BME280;58373;51.824;5.564;2023-05-15T00:21:38;101419.13;;;11.84;90.52
57990;BME280;58373;51.824;5.564;2023-05-15T00:24:03;101409.16;;;11.78;91.22
57990;BME280;58373;51.824;5.564;2023-05-15T00:26:29;101417.91;;;11.77;90.38
57990;BME280;58373;51.824;5.564;2023-05-15T00:28:55;101416.25;;;11.76;91.04
57990;BME280;58373;51.824;5.564;2023-05-15T00:31:20;101421.69;;;11.73;90.80
57990;BME280;58373;51.824;5.564;2023-05-15T00:33:45;101422.50;;;11.73;91.06
57990;BME280;58373;51.824;5.564;2023-05-15T00:36:11;101426.75;;;11.74;91.33
57990;BME280;58373;51.824;5.564;2023-05-15T00:38:36;101419.09;;;11.73;90.85
57990;BME280;58373;51.824;5.564;2023-05-15T00:41:02;101423.69;;;11.69;90.13
57990;BME280;58373;51.824;5.564;2023-05-15T00:43:28;101423.09;;;11.65;90.43
57990;BME280;58373;51.824;5.564;2023-05-15T00:45:54;101420.59;;;11.64;91.04
57990;BME280;58373;51.824;5.564;2023-05-15T00:48:19;101425.69;;;11.65;90.82
57990;BME280;58373;51.824;5.564;2023-05-15T00:50:48;101420.97;;;11.70;90.99
57990;BME280;58373;51.824;5.564;2023-05-15T00:53:14;101426.88;;;11.61;91.20
57990;BME280;58373;51.824;5.564;2023-05-15T00:55:39;101428.50;;;11.62;90.96
57990;BME280;58373;51.824;5.564;2023-05-15T00:58:06;101420.84;;;11.61;90.66
57990;BME280;58373;51.824;5.564;2023-05-15T01:00:31;101427.09;;;11.58;91.16
57990;BME280;58373;51.824;5.564;2023-05-15T01:02:57;101420.03;;;11.60;90.89
57990;BME280;58373;51.824;5.564;2023-05-15T01:05:23;101417.44;;;11.60;91.45
57990;BME280;58373;51.824;5.564;2023-05-15T01:07:53;101412.22;;;11.60;90.97
57990;BME280;58373;51.824;5.564;2023-05-15T01:10:20;101415.66;;;11.61;91.23
57990;BME280;58373;51.824;5.564;2023-05-15T01:12:45;101414.00;;;11.60;91.09
57990;BME280;58373;51.824;5.564;2023-05-15T01:15:11;101406.31;;;11.58;91.25
57990;BME280;58373;51.824;5.564;2023-05-15T01:17:37;101415.03;;;11.57;91.29
57990;BME280;58373;51.824;5.564;2023-05-15T01:20:02;101412.56;;;11.56;90.89
57990;BME280;58373;51.824;5.564;2023-05-15T01:22:39;101406.06;;;11.50;91.05
57990;BME280;58373;51.824;5.564;2023-05-15T01:27:44;101403.34;;;11.40;91.21
57990;BME280;58373;51.824;5.564;2023-05-15T01:30:13;101398.38;;;11.37;91.69
57990;BME280;58373;51.824;5.564;2023-05-15T01:38:01;101386.81;;;11.30;91.83
57990;BME280;58373;51.824;5.564;2023-05-15T01:40:27;101386.22;;;11.27;91.95
57990;BME280;58373;51.824;5.564;2023-05-15T01:42:54;101381.25;;;11.24;91.96
57990;BME280;58373;51.824;5.564;2023-05-15T01:45:20;101398.97;;;11.19;92.52
57990;BME280;58373;51.824;5.564;2023-05-15T01:47:47;101394.94;;;11.14;92.61
57990;BME280;58373;51.824;5.564;2023-05-15T01:50:14;101400.25;;;11.13;92.82
57990;BME280;58373;51.824;5.564;2023-05-15T01:52:40;101398.00;;;11.08;92.87
57990;BME280;58373;51.824;5.564;2023-05-15T01:55:07;101388.75;;;11.04;92.70
57990;BME280;58373;51.824;5.564;2023-05-15T01:57:32;101391.38;;;11.04;92.70
57990;BME280;58373;51.824;5.564;2023-05-15T01:59:59;101394.06;;;11.03;92.29
57990;BME280;58373;51.824;5.564;2023-05-15T02:02:25;101381.06;;;10.92;92.40
57990;BME280;58373;51.824;5.564;2023-05-15T02:04:51;101385.53;;;10.89;92.43
57990;BME280;58373;51.824;5.564;2023-05-15T02:07:17;101374.31;;;10.89;92.53
57990;BME280;58373;51.824;5.564;2023-05-15T02:09:42;101371.97;;;10.86;92.99
57990;BME280;58373;51.824;5.564;2023-05-15T02:12:08;101379.06;;;10.84;92.16
57990;BME280;58373;51.824;5.564;2023-05-15T02:14:34;101380.91;;;10.82;92.42
57990;BME280;58373;51.824;5.564;2023-05-15T02:17:01;101384.34;;;10.82;92.27
57990;BME280;58373;51.824;5.564;2023-05-15T02:19:26;101379.25;;;10.81;93.05
57990;BME280;58373;51.824;5.564;2023-05-15T02:21:51;101371.59;;;10.79;92.59
57990;BME280;58373;51.824;5.564;2023-05-15T02:24:16;101380.34;;;10.78;92.35
57990;BME280;58373;51.824;5.564;2023-05-15T02:32:11;101387.94;;;10.69;92.48
57990;BME280;58373;51.824;5.564;2023-05-15T02:37:05;101382.03;;;10.67;93.29
57990;BME280;58373;51.824;5.564;2023-05-15T02:39:34;101386.31;;;10.68;93.38
57990;BME280;58373;51.824;5.564;2023-05-15T02:42:00;101387.22;;;10.67;93.51
57990;BME280;58373;51.824;5.564;2023-05-15T02:44:26;101397.84;;;10.63;93.50
57990;BME280;58373;51.824;5.564;2023-05-15T02:46:52;101396.19;;;10.62;93.25
57990;BME280;58373;51.824;5.564;2023-05-15T02:49:17;101393.09;;;10.57;93.76
57990;BME280;58373;51.824;5.564;2023-05-15T02:51:43;101396.84;;;10.53;93.58
57990;BME280;58373;51.824;5.564;2023-05-15T02:54:08;101398.72;;;10.51;93.15
57990;BME280;58373;51.824;5.564;2023-05-15T02:56:34;101391.72;;;10.41;93.89
57990;BME280;58373;51.824;5.564;2023-05-15T02:58:59;101396.06;;;10.40;93.82
57990;BME280;58373;51.824;5.564;2023-05-15T03:01:24;101398.16;;;10.35;94.51
57990;BME280;58373;51.824;5.564;2023-05-15T03:03:50;101396.94;;;10.28;95.38
57990;BME280;58373;51.824;5.564;2023-05-15T03:06:15;101399.44;;;10.29;95.85
57990;BME280;58373;51.824;5.564;2023-05-15T03:08:42;101393.13;;;10.21;95.84
57990;BME280;58373;51.824;5.564;2023-05-15T03:11:08;101395.09;;;10.17;96.04
57990;BME280;58373;51.824;5.564;2023-05-15T03:13:33;101385.53;;;10.18;95.63
57990;BME280;58373;51.824;5.564;2023-05-15T03:15:58;101376.00;;;10.18;96.34
57990;BME280;58373;51.824;5.564;2023-05-15T03:18:23;101383.25;;;10.13;95.92
57990;BME280;58373;51.824;5.564;2023-05-15T03:20:49;101381.81;;;10.09;96.22
57990;BME280;58373;51.824;5.564;2023-05-15T03:23:15;101388.56;;;10.11;96.79
57990;BME280;58373;51.824;5.564;2023-05-15T03:25:40;101375.59;;;10.11;96.74
57990;BME280;58373;51.824;5.564;2023-05-15T03:28:05;101379.97;;;10.11;97.02
57990;BME280;58373;51.824;5.564;2023-05-15T03:30:30;101377.91;;;10.03;97.33
57990;BME280;58373;51.824;5.564;2023-05-15T03:32:55;101370.84;;;10.05;97.32
57990;BME280;58373;51.824;5.564;2023-05-15T03:35:21;101384.75;;;10.04;96.63
57990;BME280;58373;51.824;5.564;2023-05-15T03:37:47;101382.47;;;10.00;97.94
57990;BME280;58373;51.824;5.564;2023-05-15T03:40:12;101377.41;;;9.98;97.42
57990;BME280;58373;51.824;5.564;2023-05-15T03:42:37;101382.69;;;9.97;97.56
57990;BME280;58373;51.824;5.564;2023-05-15T03:45:03;101376.69;;;9.96;95.97
57990;BME280;58373;51.824;5.564;2023-05-15T03:47:28;101378.31;;;9.97;97.22
57990;BME280;58373;51.824;5.564;2023-05-15T03:49:53;101368.81;;;9.98;96.98
57990;BME280;58373;51.824;5.564;2023-05-15T03:52:18;101369.41;;;10.01;96.84
57990;BME280;58373;51.824;5.564;2023-05-15T03:54:44;101367.13;;;9.97;97.40
57990;BME280;58373;51.824;5.564;2023-05-15T03:57:09;101362.69;;;9.99;96.70
57990;BME280;58373;51.824;5.564;2023-05-15T03:59:34;101362.78;;;9.97;98.29
57990;BME280;58373;51.824;5.564;2023-05-15T04:01:59;101354.31;;;9.95;97.62
57990;BME280;58373;51.824;5.564;2023-05-15T04:04:24;101356.69;;;9.98;97.23
57990;BME280;58373;51.824;5.564;2023-05-15T04:06:50;101366.13;;;9.99;97.52
57990;BME280;58373;51.824;5.564;2023-05-15T04:09:15;101364.22;;;10.01;96.71
57990;BME280;58373;51.824;5.564;2023-05-15T04:11:40;101359.03;;;10.01;96.36
57990;BME280;58373;51.824;5.564;2023-05-15T04:14:05;101356.56;;;10.00;97.54
57990;BME280;58373;51.824;5.564;2023-05-15T04:16:31;101363.41;;;10.01;96.50
57990;BME280;58373;51.824;5.564;2023-05-15T04:18:56;101359.28;;;9.98;96.75
57990;BME280;58373;51.824;5.564;2023-05-15T04:21:21;101364.47;;;9.98;96.37
57990;BME280;58373;51.824;5.564;2023-05-15T04:23:46;101362.34;;;10.03;97.05
57990;BME280;58373;51.824;5.564;2023-05-15T04:26:11;101371.06;;;10.02;97.35
57990;BME280;58373;51.824;5.564;2023-05-15T04:28:37;101364.03;;;10.04;96.61
57990;BME280;58373;51.824;5.564;2023-05-15T04:31:02;101374.16;;;10.07;97.44
57990;BME280;58373;51.824;5.564;2023-05-15T04:33:27;101370.84;;;10.05;96.91
57990;BME280;58373;51.824;5.564;2023-05-15T04:35:52;101377.81;;;10.05;97.65
57990;BME280;58373;51.824;5.564;2023-05-15T04:38:18;101377.41;;;9.98;97.92
57990;BME280;58373;51.824;5.564;2023-05-15T04:40:43;101381.34;;;9.91;98.27
57990;BME280;58373;51.824;5.564;2023-05-15T04:43:09;101384.78;;;9.79;99.10
57990;BME280;58373;51.824;5.564;2023-05-15T04:45:34;101385.66;;;9.67;98.77
57990;BME280;58373;51.824;5.564;2023-05-15T04:47:59;101392.72;;;9.65;100.00
57990;BME280;58373;51.824;5.564;2023-05-15T04:50:24;101399.97;;;9.60;100.00
57990;BME280;58373;51.824;5.564;2023-05-15T04:52:50;101392.59;;;9.53;100.00
57990;BME280;58373;51.824;5.564;2023-05-15T04:55:15;101397.38;;;9.47;100.00
57990;BME280;58373;51.824;5.564;2023-05-15T04:57:40;101397.69;;;9.42;100.00
57990;BME280;58373;51.824;5.564;2023-05-15T05:00:06;101393.53;;;9.40;100.00
57990;BME280;58373;51.824;5.564;2023-05-15T05:02:35;101395.69;;;9.33;100.00
57990;BME280;58373;51.824;5.564;2023-05-15T05:05:01;101394.78;;;9.34;100.00
57990;BME280;58373;51.824;5.564;2023-05-15T05:07:26;101394.56;;;9.37;100.00
57990;BME280;58373;51.824;5.564;2023-05-15T05:09:51;101390.34;;;9.36;100.00
57990;BME280;58373;51.824;5.564;2023-05-15T05:12:16;101390.94;;;9.40;100.00
57990;BME280;58373;51.824;5.564;2023-05-15T05:14:42;101396.22;;;9.38;100.00
57990;BME280;58373;51.824;5.564;2023-05-15T05:17:08;101394.56;;;9.37;100.00
57990;BME280;58373;51.824;5.564;2023-05-15T05:19:33;101404.72;;;9.40;100.00
57990;BME280;58373;51.824;5.564;2023-05-15T05:21:59;101405.94;;;9.35;100.00
57990;BME280;58373;51.824;5.564;2023-05-15T05:24:28;101415.47;;;9.34;100.00
57990;BME280;58373;51.824;5.564;2023-05-15T05:26:53;101420.25;;;9.40;100.00
57990;BME280;58373;51.824;5.564;2023-05-15T05:29:19;101403.28;;;9.36;100.00
57990;BME280;58373;51.824;5.564;2023-05-15T05:31:45;101404.94;;;9.37;100.00
57990;BME280;58373;51.824;5.564;2023-05-15T05:34:10;101414.56;;;9.35;100.00
57990;BME280;58373;51.824;5.564;2023-05-15T05:36:35;101416.22;;;9.36;100.00
57990;BME280;58373;51.824;5.564;2023-05-15T05:39:01;101409.16;;;9.38;100.00
57990;BME280;58373;51.824;5.564;2023-05-15T05:41:26;101423.16;;;9.48;100.00
57990;BME280;58373;51.824;5.564;2023-05-15T05:43:51;101417.75;;;9.51;100.00
57990;BME280;58373;51.824;5.564;2023-05-15T05:46:16;101410.22;;;9.48;100.00
57990;BME280;58373;51.824;5.564;2023-05-15T05:48:42;101409.50;;;9.46;100.00
57990;BME280;58373;51.824;5.564;2023-05-15T05:51:07;101418.19;;;9.45;100.00
57990;BME280;58373;51.824;5.564;2023-05-15T05:53:32;101423.16;;;9.48;100.00
57990;BME280;58373;51.824;5.564;2023-05-15T05:55:57;101415.50;;;9.47;100.00
57990;BME280;58373;51.824;5.564;2023-05-15T05:58:23;101419.13;;;9.44;100.00
57990;BME280;58373;51.824;5.564;2023-05-15T06:00:48;101416.34;;;9.47;100.00
57990;BME280;58373;51.824;5.564;2023-05-15T06:03:13;101421.28;;;9.50;100.00
57990;BME280;58373;51.824;5.564;2023-05-15T06:05:39;101415.69;;;9.56;100.00
57990;BME280;58373;51.824;5.564;2023-05-15T06:08:04;101411.84;;;9.62;100.00
57990;BME280;58373;51.824;5.564;2023-05-15T06:10:30;101415.78;;;9.68;100.00
57990;BME280;58373;51.824;5.564;2023-05-15T06:12:55;101423.56;;;9.68;100.00
57990;BME280;58373;51.824;5.564;2023-05-15T06:15:21;101427.09;;;9.67;99.65
57990;BME280;58373;51.824;5.564;2023-05-15T06:17:46;101418.38;;;9.68;99.82
57990;BME280;58373;51.824;5.564;2023-05-15T06:20:11;101431.84;;;9.73;99.46
57990;BME280;58373;51.824;5.564;2023-05-15T06:22:37;101426.47;;;9.76;99.12
57990;BME280;58373;51.824;5.564;2023-05-15T06:25:05;101420.88;;;9.82;99.11
57990;BME280;58373;51.824;5.564;2023-05-15T06:27:31;101420.56;;;9.87;98.93
57990;BME280;58373;51.824;5.564;2023-05-15T06:29:56;101414.84;;;9.94;99.05
57990;BME280;58373;51.824;5.564;2023-05-15T06:32:22;101419.97;;;10.07;98.61
57990;BME280;58373;51.824;5.564;2023-05-15T06:34:47;101426.63;;;10.11;98.76
57990;BME280;58373;51.824;5.564;2023-05-15T06:37:12;101428.66;;;10.19;98.79
57990;BME280;58373;51.824;5.564;2023-05-15T06:39:37;101431.59;;;10.27;98.63
57990;BME280;58373;51.824;5.564;2023-05-15T06:42:03;101433.97;;;10.30;98.68
57990;BME280;58373;51.824;5.564;2023-05-15T06:44:31;101427.38;;;10.37;98.55
57990;BME280;58373;51.824;5.564;2023-05-15T06:46:56;101428.41;;;10.47;98.30
57990;BME280;58373;51.824;5.564;2023-05-15T06:49:22;101424.41;;;10.54;97.76
57990;BME280;58373;51.824;5.564;2023-05-15T06:51:47;101418.78;;;10.60;98.01
57990;BME280;58373;51.824;5.564;2023-05-15T06:54:13;101422.50;;;10.69;98.45
57990;BME280;58373;51.824;5.564;2023-05-15T06:56:38;101416.03;;;10.75;96.84
57990;BME280;58373;51.824;5.564;2023-05-15T06:59:03;101415.59;;;10.81;98.22
57990;BME280;58373;51.824;5.564;2023-05-15T07:01:29;101415.72;;;10.79;95.44
57990;BME280;58373;51.824;5.564;2023-05-15T07:03:54;101410.84;;;10.75;94.80
57990;BME280;58373;51.824;5.564;2023-05-15T07:06:20;101416.69;;;10.66;94.57
57990;BME280;58373;51.824;5.564;2023-05-15T07:08:45;101413.16;;;10.67;94.52
57990;BME280;58373;51.824;5.564;2023-05-15T07:11:10;101411.28;;;10.69;94.81
57990;BME280;58373;51.824;5.564;2023-05-15T07:13:35;101421.00;;;10.78;95.44
57990;BME280;58373;51.824;5.564;2023-05-15T07:16:01;101425.84;;;10.82;95.64
57990;BME280;58373;51.824;5.564;2023-05-15T07:18:26;101414.69;;;10.93;95.38
57990;BME280;58373;51.824;5.564;2023-05-15T07:20:51;101424.97;;;11.06;94.08
57990;BME280;58373;51.824;5.564;2023-05-15T07:23:17;101418.50;;;11.11;94.70
57990;BME280;58373;51.824;5.564;2023-05-15T07:25:42;101418.28;;;11.14;91.56
57990;BME280;58373;51.824;5.564;2023-05-15T07:28:07;101415.94;;;11.23;93.32
57990;BME280;58373;51.824;5.564;2023-05-15T07:30:32;101413.16;;;11.37;94.11
57990;BME280;58373;51.824;5.564;2023-05-15T07:32:58;101411.97;;;11.52;94.26
57990;BME280;58373;51.824;5.564;2023-05-15T07:35:23;101412.72;;;11.65;94.08
57990;BME280;58373;51.824;5.564;2023-05-15T07:37:48;101417.44;;;11.72;92.60
57990;BME280;58373;51.824;5.564;2023-05-15T07:40:14;101404.66;;;11.80;92.15
57990;BME280;58373;51.824;5.564;2023-05-15T07:42:39;101410.25;;;11.86;91.98
57990;BME280;58373;51.824;5.564;2023-05-15T07:45:05;101411.06;;;11.87;92.09
57990;BME280;58373;51.824;5.564;2023-05-15T07:47:30;101395.03;;;11.93;91.60
57990;BME280;58373;51.824;5.564;2023-05-15T07:49:56;101398.31;;;11.95;91.51
57990;BME280;58373;51.824;5.564;2023-05-15T07:52:21;101400.91;;;12.06;92.24
57990;BME280;58373;51.824;5.564;2023-05-15T07:54:46;101407.38;;;12.23;91.86
57990;BME280;58373;51.824;5.564;2023-05-15T07:57:11;101399.06;;;12.40;91.71
57990;BME280;58373;51.824;5.564;2023-05-15T07:59:37;101389.19;;;12.44;91.54
57990;BME280;58373;51.824;5.564;2023-05-15T08:02:02;101401.94;;;12.58;91.27
57990;BME280;58373;51.824;5.564;2023-05-15T08:04:27;101407.88;;;12.81;90.55
57990;BME280;58373;51.824;5.564;2023-05-15T08:06:52;101412.50;;;12.77;87.76
57990;BME280;58373;51.824;5.564;2023-05-15T08:09:17;101405.66;;;12.76;86.71
57990;BME280;58373;51.824;5.564;2023-05-15T08:11:43;101399.84;;;12.73;88.13
57990;BME280;58373;51.824;5.564;2023-05-15T08:14:08;101395.00;;;12.80;89.17
57990;BME280;58373;51.824;5.564;2023-05-15T08:16:34;101390.16;;;12.96;89.14
57990;BME280;58373;51.824;5.564;2023-05-15T08:18:59;101402.06;;;13.10;89.09
57990;BME280;58373;51.824;5.564;2023-05-15T08:21:28;101399.97;;;13.24;87.89
57990;BME280;58373;51.824;5.564;2023-05-15T08:23:53;101396.75;;;13.32;85.21
57990;BME280;58373;51.824;5.564;2023-05-15T08:26:19;101398.97;;;13.37;84.73
57990;BME280;58373;51.824;5.564;2023-05-15T08:28:44;101395.41;;;13.38;84.79
57990;BME280;58373;51.824;5.564;2023-05-15T08:31:10;101395.13;;;13.41;83.59
57990;BME280;58373;51.824;5.564;2023-05-15T08:33:35;101392.97;;;13.46;84.50
57990;BME280;58373;51.824;5.564;2023-05-15T08:36:00;101394.97;;;13.63;85.56
57990;BME280;58373;51.824;5.564;2023-05-15T08:38:25;101395.72;;;13.85;86.23
57990;BME280;58373;51.824;5.564;2023-05-15T08:40:51;101399.63;;;14.00;86.23
57990;BME280;58373;51.824;5.564;2023-05-15T08:43:18;101412.13;;;14.16;85.27
57990;BME280;58373;51.824;5.564;2023-05-15T08:45:45;101397.31;;;14.16;84.98
57990;BME280;58373;51.824;5.564;2023-05-15T08:48:15;101405.31;;;14.24;85.10
57990;BME280;58373;51.824;5.564;2023-05-15T08:50:40;101404.47;;;14.33;83.01
57990;BME280;58373;51.824;5.564;2023-05-15T08:53:07;101410.00;;;14.40;82.87
57990;BME280;58373;51.824;5.564;2023-05-15T08:55:33;101402.72;;;14.44;83.12
57990;BME280;58373;51.824;5.564;2023-05-15T08:57:58;101410.44;;;14.55;82.92
57990;BME280;58373;51.824;5.564;2023-05-15T09:00:24;101400.41;;;14.60;81.77
57990;BME280;58373;51.824;5.564;2023-05-15T09:02:52;101405.38;;;14.53;82.14
57990;BME280;58373;51.824;5.564;2023-05-15T09:05:17;101402.63;;;14.65;82.04
57990;BME280;58373;51.824;5.564;2023-05-15T09:07:42;101407.16;;;14.72;82.46
57990;BME280;58373;51.824;5.564;2023-05-15T09:10:09;101403.44;;;14.84;81.88
57990;BME280;58373;51.824;5.564;2023-05-15T09:12:34;101407.31;;;14.80;80.74
57990;BME280;58373;51.824;5.564;2023-05-15T09:15:07;101397.13;;;14.77;81.07
57990;BME280;58373;51.824;5.564;2023-05-15T09:17:32;101407.00;;;14.83;80.81
57990;BME280;58373;51.824;5.564;2023-05-15T09:19:57;101399.31;;;14.92;80.08
57990;BME280;58373;51.824;5.564;2023-05-15T09:22:22;101402.59;;;14.94;79.37
57990;BME280;58373;51.824;5.564;2023-05-15T09:24:50;101401.22;;;14.90;78.06
57990;BME280;58373;51.824;5.564;2023-05-15T09:27:17;101398.75;;;14.78;78.26
57990;BME280;58373;51.824;5.564;2023-05-15T09:29:42;101399.31;;;14.82;77.76
57990;BME280;58373;51.824;5.564;2023-05-15T09:32:08;101401.09;;;14.81;77.73
57990;BME280;58373;51.824;5.564;2023-05-15T09:34:34;101405.09;;;14.85;77.04
57990;BME280;58373;51.824;5.564;2023-05-15T09:37:01;101405.50;;;14.71;77.22
57990;BME280;58373;51.824;5.564;2023-05-15T09:39:26;101401.50;;;14.67;77.82
57990;BME280;58373;51.824;5.564;2023-05-15T09:41:51;101402.63;;;14.74;77.48
57990;BME280;58373;51.824;5.564;2023-05-15T09:44:24;101406.47;;;14.70;77.38
57990;BME280;58373;51.824;5.564;2023-05-15T09:46:49;101396.59;;;14.64;75.96
57990;BME280;58373;51.824;5.564;2023-05-15T09:49:15;101405.22;;;14.55;76.73
57990;BME280;58373;51.824;5.564;2023-05-15T09:51:41;101398.22;;;14.55;78.65
57990;BME280;58373;51.824;5.564;2023-05-15T09:54:07;101408.13;;;14.71;78.41
57990;BME280;58373;51.824;5.564;2023-05-15T09:56:38;101410.31;;;14.85;77.63
57990;BME280;58373;51.824;5.564;2023-05-15T09:59:04;101409.34;;;14.86;79.37
57990;BME280;58373;51.824;5.564;2023-05-15T10:01:30;101403.97;;;14.98;79.12
57990;BME280;58373;51.824;5.564;2023-05-15T10:03:58;101401.22;;;15.09;78.25
57990;BME280;58373;51.824;5.564;2023-05-15T10:06:23;101405.88;;;15.15;77.75
57990;BME280;58373;51.824;5.564;2023-05-15T10:08:52;101399.16;;;15.03;78.79
57990;BME280;58373;51.824;5.564;2023-05-15T10:11:18;101406.44;;;15.09;78.53
57990;BME280;58373;51.824;5.564;2023-05-15T10:13:43;101404.78;;;15.08;79.28
57990;BME280;58373;51.824;5.564;2023-05-15T10:16:09;101407.78;;;15.13;78.63
57990;BME280;58373;51.824;5.564;2023-05-15T10:18:35;101413.97;;;15.12;78.67
57990;BME280;58373;51.824;5.564;2023-05-15T10:21:02;101405.47;;;15.10;78.22
57990;BME280;58373;51.824;5.564;2023-05-15T10:23:29;101415.66;;;15.03;79.42
57990;BME280;58373;51.824;5.564;2023-05-15T10:25:58;101414.97;;;15.11;79.10
57990;BME280;58373;51.824;5.564;2023-05-15T10:28:27;101412.75;;;15.06;79.72
57990;BME280;58373;51.824;5.564;2023-05-15T10:30:52;101414.41;;;15.07;79.53
57990;BME280;58373;51.824;5.564;2023-05-15T10:33:19;101419.91;;;15.14;78.46
57990;BME280;58373;51.824;5.564;2023-05-15T10:35:44;101414.13;;;15.01;79.32
57990;BME280;58373;51.824;5.564;2023-05-15T10:38:10;101415.78;;;15.02;78.94
57990;BME280;58373;51.824;5.564;2023-05-15T10:40:36;101416.06;;;14.99;78.19
57990;BME280;58373;51.824;5.564;2023-05-15T10:43:03;101421.03;;;14.82;77.72
57990;BME280;58373;51.824;5.564;2023-05-15T10:45:28;101416.91;;;14.70;78.65
57990;BME280;58373;51.824;5.564;2023-05-15T10:47:54;101416.91;;;14.70;78.85
57990;BME280;58373;51.824;5.564;2023-05-15T10:50:20;101415.81;;;14.63;80.26
57990;BME280;58373;51.824;5.564;2023-05-15T10:52:46;101419.09;;;14.65;79.27
57990;BME280;58373;51.824;5.564;2023-05-15T10:55:15;101409.47;;;14.56;80.50
57990;BME280;58373;51.824;5.564;2023-05-15T10:57:40;101407.69;;;14.56;80.98
57990;BME280;58373;51.824;5.564;2023-05-15T11:02:46;101410.31;;;14.66;80.87
57990;BME280;58373;51.824;5.564;2023-05-15T11:05:11;101410.06;;;14.69;80.82
57990;BME280;58373;51.824;5.564;2023-05-15T11:07:38;101411.16;;;14.57;80.97
57990;BME280;58373;51.824;5.564;2023-05-15T11:10:34;101412.09;;;14.56;81.54
57990;BME280;58373;51.824;5.564;2023-05-15T11:12:55;101409.22;;;14.59;81.27
57990;BME280;58373;51.824;5.564;2023-05-15T11:15:21;101410.88;;;14.60;80.96
57990;BME280;58373;51.824;5.564;2023-05-15T11:18:02;101416.03;;;14.41;81.37
57990;BME280;58373;51.824;5.564;2023-05-15T11:20:38;101408.91;;;14.43;81.66
57990;BME280;58373;51.824;5.564;2023-05-15T11:23:04;101407.94;;;14.44;81.20
57990;BME280;58373;51.824;5.564;2023-05-15T11:25:29;101411.09;;;14.38;81.95
57990;BME280;58373;51.824;5.564;2023-05-15T11:27:57;101411.97;;;14.48;81.53
57990;BME280;58373;51.824;5.564;2023-05-15T11:30:32;101412.03;;;14.37;82.08
57990;BME280;58373;51.824;5.564;2023-05-15T11:32:59;101410.53;;;14.44;81.75
57990;BME280;58373;51.824;5.564;2023-05-15T11:35:26;101411.16;;;14.57;81.48
57990;BME280;58373;51.824;5.564;2023-05-15T11:37:54;101411.13;;;14.47;82.13
57990;BME280;58373;51.824;5.564;2023-05-15T11:40:23;101410.53;;;14.44;82.14
57990;BME280;58373;51.824;5.564;2023-05-15T11:42:59;101415.66;;;14.45;82.11
57990;BME280;58373;51.824;5.564;2023-05-15T11:45:24;101407.78;;;14.35;82.12
57990;BME280;58373;51.824;5.564;2023-05-15T11:47:50;101404.75;;;14.30;82.75
57990;BME280;58373;51.824;5.564;2023-05-15T11:50:15;101414.22;;;14.31;82.77
57990;BME280;58373;51.824;5.564;2023-05-15T11:52:41;101417.94;;;14.29;83.01
57990;BME280;58373;51.824;5.564;2023-05-15T11:55:06;101424.66;;;14.31;83.61
57990;BME280;58373;51.824;5.564;2023-05-15T11:57:32;101418.78;;;14.29;83.28
57990;BME280;58373;51.824;5.564;2023-05-15T11:59:57;101418.78;;;14.29;82.86
57990;BME280;58373;51.824;5.564;2023-05-15T12:02:22;101419.56;;;14.20;83.24
57990;BME280;58373;51.824;5.564;2023-05-15T12:04:48;101422.19;;;14.20;83.37
57990;BME280;58373;51.824;5.564;2023-05-15T12:07:15;101420.13;;;14.24;82.85
57990;BME280;58373;51.824;5.564;2023-05-15T12:09:40;101416.63;;;14.04;83.53
57990;BME280;58373;51.824;5.564;2023-05-15T12:12:06;101417.50;;;14.14;83.82
57990;BME280;58373;51.824;5.564;2023-05-15T12:14:38;101423.09;;;14.00;84.18
57990;BME280;58373;51.824;5.564;2023-05-15T12:17:03;101415.72;;;14.05;84.23
57990;BME280;58373;51.824;5.564;2023-05-15T12:19:37;101411.00;;;13.99;84.44
57990;BME280;58373;51.824;5.564;2023-05-15T12:22:03;101418.41;;;13.94;85.25
57990;BME280;58373;51.824;5.564;2023-05-15T12:24:28;101415.09;;;13.92;85.15
57990;BME280;58373;51.824;5.564;2023-05-15T12:26:54;101422.47;;;13.87;85.35
57990;BME280;58373;51.824;5.564;2023-05-15T12:29:19;101417.03;;;13.90;86.20
57990;BME280;58373;51.824;5.564;2023-05-15T12:31:44;101415.09;;;13.92;85.66
57990;BME280;58373;51.824;5.564;2023-05-15T12:34:10;101410.44;;;13.95;86.48
57990;BME280;58373;51.824;5.564;2023-05-15T12:36:35;101412.38;;;14.03;86.12
57990;BME280;58373;51.824;5.564;2023-05-15T12:39:04;101412.97;;;14.16;85.85
57990;BME280;58373;51.824;5.564;2023-05-15T12:41:30;101396.78;;;14.22;85.56
57990;BME280;58373;51.824;5.564;2023-05-15T12:43:55;101398.03;;;14.38;83.94
57990;BME280;58373;51.824;5.564;2023-05-15T12:46:21;101395.97;;;14.31;84.07
57990;BME280;58373;51.824;5.564;2023-05-15T12:48:46;101399.03;;;14.46;84.65
57990;BME280;58373;51.824;5.564;2023-05-15T12:51:11;101395.50;;;14.57;83.71
57990;BME280;58373;51.824;5.564;2023-05-15T12:53:40;101394.09;;;14.72;83.42
57990;BME280;58373;51.824;5.564;2023-05-15T12:56:06;101400.97;;;14.73;82.51
57990;BME280;58373;51.824;5.564;2023-05-15T12:58:32;101395.19;;;14.79;81.55
57990;BME280;58373;51.824;5.564;2023-05-15T13:00:57;101383.66;;;14.63;81.99
57990;BME280;58373;51.824;5.564;2023-05-15T13:03:23;101391.06;;;14.67;82.36